createdAt,value
2023-06-17T00:00:28.404Z,18.00
2023-06-17T00:03:49.933Z,15.67
2023-06-17T00:07:11.407Z,13.47
2023-06-17T00:10:32.806Z,18.60
2023-06-17T00:13:55.672Z,15.27
2023-06-17T00:17:17.113Z,18.83
2023-06-17T00:20:38.699Z,21.50
2023-06-17T00:23:59.901Z,21.37
2023-06-17T00:27:21.142Z,20.20
2023-06-17T00:30:46.543Z,20.97
2023-06-17T00:34:07.788Z,15.87
2023-06-17T00:37:29.065Z,19.27
2023-06-17T00:40:50.574Z,18.60
2023-06-17T00:44:11.888Z,21.17
2023-06-17T00:47:34.711Z,22.67
2023-06-17T00:51:02.735Z,22.60
2023-06-17T00:54:25.267Z,19.93
2023-06-17T00:57:48.845Z,20.53
2023-06-17T01:01:10.633Z,22.47
2023-06-17T01:04:34.162Z,22.17
2023-06-17T01:08:11.234Z,22.60
2023-06-17T01:11:33.257Z,28.13
2023-06-17T01:14:58.338Z,22.57
2023-06-17T01:18:21.225Z,21.23
2023-06-17T01:21:44.450Z,20.80
2023-06-17T01:25:09.912Z,22.33
2023-06-17T01:28:31.848Z,25.73
2023-06-17T01:31:57.677Z,18.33
2023-06-17T01:35:19.258Z,19.27
2023-06-17T01:38:44.773Z,17.97
2023-06-17T01:42:12.246Z,19.40
2023-06-17T01:45:34.365Z,20.53
2023-06-17T01:48:56.704Z,27.03
2023-06-17T01:52:18.367Z,19.63
2023-06-17T01:55:40.428Z,22.40
2023-06-17T01:59:03.046Z,19.90
2023-06-17T02:02:24.828Z,20.97
2023-06-17T02:05:46.848Z,22.03
2023-06-17T02:09:08.342Z,23.77
2023-06-17T02:12:29.733Z,21.80
2023-06-17T02:15:52.571Z,22.13
2023-06-17T02:19:15.854Z,22.63
2023-06-17T02:22:37.976Z,17.90
2023-06-17T02:25:59.658Z,21.57
2023-06-17T02:29:21.238Z,21.13
2023-06-17T02:32:44.219Z,25.43
2023-06-17T02:36:06.211Z,22.33
2023-06-17T02:39:27.644Z,18.00
2023-06-17T02:42:48.911Z,18.87
2023-06-17T02:46:10.513Z,23.87
2023-06-17T02:49:33.217Z,21.57
2023-06-17T02:52:56.869Z,22.30
2023-06-17T02:56:18.659Z,19.50
2023-06-17T02:59:39.899Z,19.30
2023-06-17T03:03:01.513Z,22.30
2023-06-17T03:06:25.022Z,18.60
2023-06-17T03:09:46.929Z,24.27
2023-06-17T03:13:08.548Z,22.57
2023-06-17T03:16:32.698Z,21.00
2023-06-17T03:19:55.472Z,18.63
2023-06-17T03:23:18.874Z,19.93
2023-06-17T03:26:40.241Z,21.67
2023-06-17T03:30:02.295Z,19.17
2023-06-17T03:33:23.595Z,24.40
2023-06-17T03:36:48.574Z,19.40
2023-06-17T03:40:14.686Z,25.60
2023-06-17T03:43:36.274Z,21.80
2023-06-17T03:46:59.257Z,20.17
2023-06-17T03:50:21.043Z,19.43
2023-06-17T03:53:42.694Z,18.77
2023-06-17T03:57:05.959Z,20.07
2023-06-17T04:00:27.876Z,20.90
2023-06-17T04:03:50.099Z,18.80
2023-06-17T04:07:11.958Z,18.73
2023-06-17T04:10:33.468Z,18.93
2023-06-17T04:13:56.217Z,17.47
2023-06-17T04:17:19.050Z,22.00
2023-06-17T04:20:41.295Z,19.63
2023-06-17T04:24:02.954Z,18.90
2023-06-17T04:27:24.465Z,21.53
2023-06-17T04:30:47.622Z,18.90
2023-06-17T04:34:08.836Z,21.67
2023-06-17T04:37:30.193Z,19.87
2023-06-17T04:40:53.805Z,18.70
2023-06-17T04:44:15.420Z,22.10
2023-06-17T04:47:38.658Z,19.50
2023-06-17T04:51:00.857Z,19.97
2023-06-17T04:54:25.670Z,19.03
2023-06-17T04:57:47.456Z,24.23
2023-06-17T05:01:11.643Z,25.97
2023-06-17T05:04:34.538Z,20.80
2023-06-17T05:07:56.298Z,24.33
2023-06-17T05:11:17.655Z,22.23
2023-06-17T05:14:38.956Z,21.60
2023-06-17T05:18:00.344Z,23.03
2023-06-17T05:21:24.674Z,22.47
2023-06-17T05:24:46.195Z,26.30
2023-06-17T05:28:08.277Z,21.90
2023-06-17T05:31:29.351Z,22.20
2023-06-17T05:34:50.997Z,26.97
2023-06-17T05:38:13.815Z,26.93
2023-06-17T05:41:35.094Z,22.00
2023-06-17T05:44:56.641Z,23.27
2023-06-17T05:48:18.014Z,22.87
2023-06-17T05:51:39.761Z,33.03
2023-06-17T05:55:02.299Z,27.47
2023-06-17T05:58:24.009Z,26.10
2023-06-17T06:01:45.502Z,26.27
2023-06-17T06:05:07.758Z,26.83
2023-06-17T06:08:29.247Z,28.37
2023-06-17T06:11:51.749Z,29.43
2023-06-17T06:15:12.952Z,24.40
2023-06-17T06:18:34.533Z,25.37
2023-06-17T06:21:56.510Z,24.27
2023-06-17T06:25:17.856Z,25.50
2023-06-17T06:28:40.611Z,25.63
2023-06-17T06:32:01.980Z,28.20
2023-06-17T06:35:23.499Z,24.83
2023-06-17T06:38:44.973Z,29.80
2023-06-17T06:42:07.183Z,24.27
2023-06-17T06:45:30.609Z,23.50
2023-06-17T06:48:51.863Z,24.10
2023-06-17T06:52:13.149Z,22.67
2023-06-17T06:55:34.580Z,23.83
2023-06-17T06:58:57.523Z,21.77
2023-06-17T07:02:20.523Z,21.60
2023-06-17T07:05:42.189Z,23.53
2023-06-17T07:09:03.599Z,28.20
2023-06-17T07:12:25.019Z,26.73
2023-06-17T07:15:46.606Z,21.97
2023-06-17T07:19:09.596Z,23.37
2023-06-17T07:22:31.090Z,26.63
2023-06-17T07:25:54.332Z,26.27
2023-06-17T07:29:17.653Z,24.93
2023-06-17T07:32:39.364Z,27.07
2023-06-17T07:36:01.891Z,26.77
2023-06-17T07:39:24.979Z,21.33
2023-06-17T07:42:46.570Z,24.30
2023-06-17T07:46:08.508Z,23.83
2023-06-17T07:49:30.951Z,24.60
2023-06-17T07:52:54.106Z,22.00
2023-06-17T07:56:15.608Z,20.47
2023-06-17T07:59:37.510Z,21.43
2023-06-17T08:02:58.822Z,21.67
2023-06-17T08:06:20.936Z,18.40
2023-06-17T08:09:43.608Z,21.50
2023-06-17T08:13:05.070Z,19.33
2023-06-17T08:16:26.495Z,21.87
2023-06-17T08:19:48.345Z,20.53
2023-06-17T08:23:09.929Z,15.10
2023-06-17T08:26:32.506Z,19.17
2023-06-17T08:29:53.741Z,21.30
2023-06-17T08:33:15.191Z,18.80
2023-06-17T08:36:38.464Z,18.83
2023-06-17T08:39:59.800Z,20.33
2023-06-17T08:43:23.333Z,20.63
2023-06-17T08:46:45.751Z,18.10
2023-06-17T08:50:08.786Z,16.20
2023-06-17T08:53:32.087Z,16.23
2023-06-17T08:56:54.907Z,17.40
2023-06-17T09:00:18.814Z,14.30
2023-06-17T09:03:42.340Z,14.90
2023-06-17T09:07:03.760Z,14.80
2023-06-17T09:10:25.075Z,15.60
2023-06-17T09:13:51.512Z,14.73
2023-06-17T09:17:29.870Z,13.60
2023-06-17T09:20:52.965Z,15.20
2023-06-17T09:24:14.505Z,14.10
2023-06-17T09:27:36.211Z,15.13
2023-06-17T09:31:00.654Z,14.80
2023-06-17T09:34:25.755Z,14.33
2023-06-17T09:38:02.588Z,15.30
2023-06-17T09:41:26.165Z,12.90
2023-06-17T09:44:48.567Z,15.10
2023-06-17T09:48:11.122Z,13.20
2023-06-17T09:51:38.919Z,13.93
2023-06-17T09:55:03.624Z,12.93
2023-06-17T09:58:26.815Z,12.50
2023-06-17T10:01:49.949Z,12.53
2023-06-17T10:05:12.172Z,11.60
2023-06-17T10:08:37.536Z,12.10
2023-06-17T10:12:02.150Z,10.70
2023-06-17T10:15:24.752Z,12.40
2023-06-17T10:18:50.010Z,9.10
2023-06-17T10:22:14.274Z,10.57
2023-06-17T10:25:38.344Z,10.00
2023-06-17T10:29:03.421Z,8.73
2023-06-17T10:32:26.071Z,8.77
2023-06-17T10:35:47.474Z,7.30
2023-06-17T10:39:11.368Z,9.83
2023-06-17T10:42:34.028Z,11.10
2023-06-17T10:45:56.576Z,11.07
2023-06-17T10:49:19.356Z,7.93
2023-06-17T10:52:41.225Z,8.23
2023-06-17T10:56:04.439Z,8.57
2023-06-17T10:59:27.621Z,7.73
2023-06-17T11:02:49.378Z,7.93
2023-06-17T11:06:11.729Z,8.00
2023-06-17T11:09:35.360Z,8.27
2023-06-17T11:12:56.779Z,8.07
2023-06-17T11:16:21.238Z,7.67
2023-06-17T11:19:42.641Z,8.03
2023-06-17T11:23:05.199Z,9.40
2023-06-17T11:26:27.476Z,7.53
2023-06-17T11:29:49.418Z,8.97
2023-06-17T11:33:12.006Z,7.00
2023-06-17T11:36:35.404Z,9.53
2023-06-17T11:39:59.360Z,6.73
2023-06-17T11:43:24.668Z,7.37
2023-06-17T11:46:46.425Z,7.40
2023-06-17T11:50:10.872Z,8.57
2023-06-17T11:53:35.810Z,7.60
2023-06-17T11:56:57.354Z,9.27
2023-06-17T12:00:19.490Z,8.17
2023-06-17T12:03:45.852Z,7.40
2023-06-17T12:07:09.423Z,7.70
2023-06-17T12:10:30.897Z,7.40
2023-06-17T12:13:52.539Z,7.07
2023-06-17T12:17:17.468Z,7.40
2023-06-17T12:20:39.292Z,6.87
2023-06-17T12:24:02.077Z,6.50
2023-06-17T12:27:30.176Z,5.93
2023-06-17T12:30:51.646Z,6.23
2023-06-17T12:34:13.055Z,6.07
2023-06-17T12:37:36.919Z,4.80
2023-06-17T12:41:00.273Z,4.20
2023-06-17T12:44:22.076Z,4.63
2023-06-17T12:47:43.665Z,4.97
2023-06-17T12:51:05.734Z,5.37
2023-06-17T12:54:27.195Z,8.70
2023-06-17T12:57:50.071Z,5.23
2023-06-17T13:01:11.756Z,5.90
2023-06-17T13:04:33.391Z,5.70
2023-06-17T13:07:55.064Z,5.63
2023-06-17T13:11:16.659Z,7.47
2023-06-17T13:14:39.427Z,6.30
2023-06-17T13:18:01.707Z,7.13
2023-06-17T13:21:23.616Z,5.90
2023-06-17T13:24:45.263Z,9.10
2023-06-17T13:28:07.683Z,23.20
2023-06-17T13:31:31.190Z,15.77
2023-06-17T13:34:52.697Z,10.50
2023-06-17T13:38:14.076Z,13.80
2023-06-17T13:41:35.277Z,12.90
2023-06-17T13:44:57.621Z,10.17
2023-06-17T13:48:20.304Z,8.80
2023-06-17T13:51:41.601Z,7.67
2023-06-17T13:55:03.233Z,7.97
2023-06-17T13:58:24.824Z,8.80
2023-06-17T14:01:46.297Z,9.63
2023-06-17T14:05:10.257Z,9.93
2023-06-17T14:08:31.576Z,10.20
2023-06-17T14:11:53.316Z,13.73
2023-06-17T14:15:14.607Z,12.30
2023-06-17T14:18:35.829Z,14.30
2023-06-17T14:22:01.899Z,14.47
2023-06-17T14:25:23.803Z,12.63
2023-06-17T14:28:46.057Z,13.10
2023-06-17T14:32:08.018Z,11.77
2023-06-17T14:35:29.515Z,12.87
2023-06-17T14:38:52.524Z,12.50
2023-06-17T14:42:13.754Z,11.87
2023-06-17T14:45:35.508Z,11.63
2023-06-17T14:48:57.058Z,15.43
2023-06-17T14:52:18.665Z,11.77
2023-06-17T14:55:41.542Z,11.57
2023-06-17T14:59:04.588Z,12.17
2023-06-17T15:02:43.757Z,10.10
2023-06-17T15:06:05.450Z,9.73
2023-06-17T15:09:28.178Z,9.60
2023-06-17T15:12:50.883Z,10.50
2023-06-17T15:16:12.546Z,13.07
2023-06-17T15:19:34.152Z,9.23
2023-06-17T15:22:55.567Z,8.33
2023-06-17T15:26:17.791Z,8.90
2023-06-17T15:29:41.954Z,10.33
2023-06-17T15:33:03.830Z,11.10
2023-06-17T15:36:25.508Z,9.17
2023-06-17T15:39:46.757Z,9.03
2023-06-17T15:43:08.150Z,10.60
2023-06-17T15:46:30.868Z,10.10
2023-06-17T15:49:52.118Z,10.17
2023-06-17T15:53:13.460Z,10.03
2023-06-17T15:56:37.474Z,8.80
2023-06-17T15:59:59.167Z,9.43
2023-06-17T16:03:29.552Z,9.83
2023-06-17T16:06:52.850Z,10.43
2023-06-17T16:10:16.103Z,10.33
2023-06-17T16:13:39.898Z,9.37
2023-06-17T16:17:02.887Z,10.33
2023-06-17T16:20:25.634Z,10.77
2023-06-17T16:23:47.093Z,11.60
2023-06-17T16:27:09.493Z,10.00
2023-06-17T16:30:30.840Z,9.77
2023-06-17T16:33:52.092Z,10.53
2023-06-17T16:37:16.779Z,10.23
2023-06-17T16:40:37.963Z,9.10
2023-06-17T16:43:59.379Z,9.20
2023-06-17T16:47:21.349Z,11.47
2023-06-17T16:50:43.060Z,10.10
2023-06-17T16:54:06.698Z,8.80
2023-06-17T16:57:28.791Z,8.13
2023-06-17T17:00:50.344Z,8.23
2023-06-17T17:04:13.749Z,9.67
2023-06-17T17:07:35.212Z,8.07
2023-06-17T17:10:57.877Z,8.23
2023-06-17T17:14:19.197Z,8.47
2023-06-17T17:17:41.070Z,7.87
2023-06-17T17:21:02.461Z,8.53
2023-06-17T17:24:24.109Z,8.03
2023-06-17T17:27:47.233Z,10.17
2023-06-17T17:31:08.905Z,7.67
2023-06-17T17:34:30.856Z,12.90
2023-06-17T17:37:52.317Z,12.87
2023-06-17T17:41:14.167Z,9.60
2023-06-17T17:44:37.179Z,8.53
2023-06-17T17:47:58.533Z,8.60
2023-06-17T17:51:19.788Z,9.57
2023-06-17T17:54:53.098Z,8.70
2023-06-17T17:58:22.370Z,9.73
2023-06-17T18:01:44.907Z,12.20
2023-06-17T18:05:07.414Z,8.23
2023-06-17T18:08:28.641Z,9.43
2023-06-17T18:11:49.844Z,8.77
2023-06-17T18:15:12.169Z,7.60
2023-06-17T18:18:35.102Z,8.23
2023-06-17T18:21:56.557Z,9.37
2023-06-17T18:25:18.072Z,8.13
2023-06-17T18:28:39.655Z,6.87
2023-06-17T18:32:01.099Z,8.10
2023-06-17T18:35:23.674Z,8.80
2023-06-17T18:38:45.159Z,7.60
2023-06-17T18:42:06.938Z,7.63
2023-06-17T18:45:28.427Z,10.20
2023-06-17T18:48:50.812Z,7.63
2023-06-17T18:52:13.741Z,7.77
2023-06-17T18:55:34.864Z,7.70
2023-06-17T18:58:56.521Z,11.13
2023-06-17T19:02:18.861Z,9.33
2023-06-17T19:05:40.684Z,6.70
2023-06-17T19:09:03.767Z,7.87
2023-06-17T19:12:25.368Z,6.90
2023-06-17T19:15:46.895Z,7.00
2023-06-17T19:19:08.559Z,6.57
2023-06-17T19:22:30.261Z,6.73
2023-06-17T19:25:52.851Z,6.90
2023-06-17T19:29:15.212Z,6.47
2023-06-17T19:32:37.104Z,7.57
2023-06-17T19:35:58.261Z,6.67
2023-06-17T19:39:19.831Z,7.73
2023-06-17T19:42:42.705Z,7.67
2023-06-17T19:46:04.701Z,7.53
2023-06-17T19:49:26.510Z,9.30
2023-06-17T19:52:47.873Z,7.47
2023-06-17T19:56:09.724Z,7.40
2023-06-17T19:59:32.530Z,6.80
2023-06-17T20:02:56.634Z,7.30
2023-06-17T20:06:18.608Z,7.27
2023-06-17T20:09:40.320Z,7.23
2023-06-17T20:13:02.003Z,7.97
2023-06-17T20:16:24.636Z,7.90
2023-06-17T20:19:46.890Z,8.37
2023-06-17T20:23:08.446Z,8.50
2023-06-17T20:26:29.922Z,8.37
2023-06-17T20:29:51.590Z,8.47
2023-06-17T20:33:14.119Z,8.40
2023-06-17T20:36:35.646Z,9.00
2023-06-17T20:39:56.878Z,8.47
2023-06-17T20:43:18.452Z,8.20
2023-06-17T20:46:39.962Z,8.23
2023-06-17T20:50:02.737Z,9.93
2023-06-17T20:53:24.564Z,8.40
2023-06-17T20:56:46.947Z,8.67
2023-06-17T21:00:09.662Z,9.10
2023-06-17T21:03:31.826Z,8.67
2023-06-17T21:06:54.578Z,9.30
2023-06-17T21:10:16.588Z,10.73
2023-06-17T21:13:37.860Z,9.00
2023-06-17T21:16:59.620Z,8.90
2023-06-17T21:20:21.670Z,10.60
2023-06-17T21:23:44.732Z,9.50
2023-06-17T21:27:10.316Z,10.70
2023-06-17T21:30:32.028Z,9.53
2023-06-17T21:33:54.330Z,9.20
2023-06-17T21:37:16.090Z,9.87
2023-06-17T21:40:38.770Z,9.60
2023-06-17T21:44:00.032Z,9.97
2023-06-17T21:47:21.675Z,11.13
2023-06-17T21:50:44.086Z,10.27
2023-06-17T21:54:05.919Z,10.40
2023-06-17T21:57:30.322Z,9.50
2023-06-17T22:00:52.073Z,9.33
2023-06-17T22:04:13.352Z,10.70
2023-06-17T22:07:34.794Z,9.60
2023-06-17T22:10:56.154Z,11.60
2023-06-17T22:14:19.091Z,9.90
2023-06-17T22:17:40.378Z,11.20
2023-06-17T22:21:01.707Z,10.37
2023-06-17T22:24:23.246Z,10.27
2023-06-17T22:27:46.415Z,10.10
2023-06-17T22:31:09.181Z,9.90
2023-06-17T22:34:30.808Z,9.67
2023-06-17T22:37:52.037Z,11.57
2023-06-17T22:41:13.604Z,9.93
2023-06-17T22:44:35.172Z,9.87
2023-06-17T22:47:57.829Z,10.40
2023-06-17T22:51:19.514Z,10.03
2023-06-17T22:54:40.668Z,10.33
2023-06-17T22:58:01.984Z,10.33
2023-06-17T23:01:24.009Z,9.67
2023-06-17T23:04:47.622Z,9.90
2023-06-17T23:08:08.945Z,12.07
2023-06-17T23:11:30.266Z,10.57
2023-06-17T23:14:51.476Z,11.17
2023-06-17T23:18:13.036Z,11.70
2023-06-17T23:21:37.775Z,9.87
2023-06-17T23:25:03.993Z,11.10
2023-06-17T23:28:28.635Z,10.63
2023-06-17T23:31:50.130Z,10.23
2023-06-17T23:35:11.676Z,10.90
2023-06-17T23:38:36.286Z,9.67
2023-06-17T23:41:57.643Z,9.77
2023-06-17T23:45:19.304Z,10.17
2023-06-17T23:48:40.624Z,10.37
2023-06-17T23:52:02.391Z,10.73
2023-06-17T23:55:25.414Z,10.73
2023-06-17T23:58:46.714Z,10.30
